createdAt,value
2022-11-07T00:00:03.137Z,0
2022-11-07T00:01:08.420Z,0
2022-11-07T00:02:14.666Z,0
2022-11-07T00:03:20.899Z,0
2022-11-07T00:04:27.178Z,0
2022-11-07T00:05:33.366Z,0
2022-11-07T00:06:39.634Z,0
2022-11-07T00:07:45.858Z,0
2022-11-07T00:08:52.079Z,0
2022-11-07T00:09:58.362Z,0
2022-11-07T00:11:04.551Z,0
2022-11-07T00:12:10.838Z,0
2022-11-07T00:13:17.038Z,0
2022-11-07T00:14:23.266Z,0
2022-11-07T00:15:29.482Z,0
2022-11-07T00:16:35.722Z,0
2022-11-07T00:17:41.967Z,0
2022-11-07T00:18:48.186Z,0
2022-11-07T00:19:54.450Z,0
2022-11-07T00:21:00.640Z,0
2022-11-07T00:22:06.911Z,0
2022-11-07T00:23:13.097Z,0
2022-11-07T00:24:19.329Z,0
2022-11-07T00:25:25.563Z,0
2022-11-07T00:26:31.876Z,0
2022-11-07T00:27:38.035Z,0
2022-11-07T00:28:44.341Z,0
2022-11-07T00:29:50.660Z,0
2022-11-07T00:30:55.934Z,0
2022-11-07T00:32:02.165Z,0
2022-11-07T00:33:08.488Z,0
2022-11-07T00:34:14.635Z,0
2022-11-07T00:35:20.871Z,0
2022-11-07T00:36:27.108Z,0
2022-11-07T00:37:33.337Z,0
2022-11-07T00:38:39.570Z,0
2022-11-07T00:39:45.798Z,0
2022-11-07T00:40:52.055Z,0
2022-11-07T00:41:58.271Z,0
2022-11-07T00:43:04.514Z,0
2022-11-07T00:44:10.728Z,0
2022-11-07T00:45:16.956Z,0
2022-11-07T00:46:23.179Z,0
2022-11-07T00:47:29.446Z,0
2022-11-07T00:48:35.676Z,0
2022-11-07T00:49:41.873Z,0
2022-11-07T00:50:48.119Z,0
2022-11-07T00:51:54.347Z,0
2022-11-07T00:53:00.573Z,0
2022-11-07T00:54:06.821Z,0
2022-11-07T00:55:13.043Z,0
2022-11-07T00:56:19.278Z,0
2022-11-07T00:57:25.509Z,0
2022-11-07T00:58:31.828Z,0
2022-11-07T00:59:38.125Z,0
2022-11-07T01:00:44.433Z,0
2022-11-07T01:01:50.783Z,0
2022-11-07T01:02:57.069Z,0
2022-11-07T01:04:03.378Z,0
2022-11-07T01:05:09.687Z,0
2022-11-07T01:06:16.029Z,0
2022-11-07T01:07:22.308Z,0
2022-11-07T01:08:28.620Z,0
2022-11-07T01:09:34.933Z,0
2022-11-07T01:10:41.256Z,0
2022-11-07T01:11:47.580Z,0
2022-11-07T01:12:54.036Z,0
2022-11-07T01:13:59.506Z,0
2022-11-07T01:15:05.651Z,0
2022-11-07T01:16:11.931Z,0
2022-11-07T01:17:18.137Z,0
2022-11-07T01:18:24.377Z,0
2022-11-07T01:19:30.636Z,0
2022-11-07T01:20:36.868Z,0
2022-11-07T01:21:43.125Z,0
2022-11-07T01:22:49.371Z,0
2022-11-07T01:23:55.612Z,0
2022-11-07T01:25:01.866Z,0
2022-11-07T01:26:08.115Z,0
2022-11-07T01:27:14.354Z,0
2022-11-07T01:28:20.596Z,0
2022-11-07T01:29:26.855Z,0
2022-11-07T01:30:33.087Z,0
2022-11-07T01:31:39.490Z,0
2022-11-07T01:32:45.602Z,0
2022-11-07T01:33:51.875Z,0
2022-11-07T01:34:58.131Z,0
2022-11-07T01:36:04.329Z,0
2022-11-07T01:37:10.580Z,0
2022-11-07T01:38:16.873Z,0
2022-11-07T01:39:23.086Z,0
2022-11-07T01:40:29.347Z,0
2022-11-07T01:41:35.678Z,0
2022-11-07T01:42:41.965Z,0
2022-11-07T01:43:48.290Z,0
2022-11-07T01:44:54.641Z,0
2022-11-07T01:46:00.943Z,0
2022-11-07T01:47:07.278Z,0
2022-11-07T01:48:13.589Z,0
2022-11-07T01:49:19.904Z,0
2022-11-07T01:50:26.216Z,0
2022-11-07T01:51:32.538Z,0
2022-11-07T01:52:38.852Z,0
2022-11-07T01:53:45.174Z,0
2022-11-07T01:54:51.500Z,0
2022-11-07T01:55:57.957Z,0
2022-11-07T01:57:03.319Z,0
2022-11-07T01:58:09.560Z,0
2022-11-07T01:59:15.812Z,0
2022-11-07T02:00:22.048Z,0
2022-11-07T02:01:28.267Z,0
2022-11-07T02:02:34.509Z,0
2022-11-07T02:03:40.744Z,0
2022-11-07T02:04:46.982Z,0
2022-11-07T02:05:53.216Z,0
2022-11-07T02:06:59.441Z,0
2022-11-07T02:08:05.672Z,0
2022-11-07T02:09:11.911Z,0
2022-11-07T02:10:18.149Z,0
2022-11-07T02:11:24.398Z,0
2022-11-07T02:12:30.627Z,0
2022-11-07T02:13:36.865Z,0
2022-11-07T02:14:43.107Z,0
2022-11-07T02:15:49.336Z,0
2022-11-07T02:16:55.565Z,0
2022-11-07T02:18:01.805Z,0
2022-11-07T02:19:08.045Z,0
2022-11-07T02:20:14.297Z,0
2022-11-07T02:21:20.525Z,0
2022-11-07T02:22:26.734Z,0
2022-11-07T02:23:32.971Z,0
2022-11-07T02:24:39.279Z,0
2022-11-07T02:25:45.586Z,0
2022-11-07T02:26:51.897Z,0
2022-11-07T02:27:58.209Z,0
2022-11-07T02:29:04.522Z,0
2022-11-07T02:30:10.843Z,0
2022-11-07T02:31:17.150Z,0
2022-11-07T02:32:23.455Z,0
2022-11-07T02:33:29.812Z,0
2022-11-07T02:34:36.077Z,0
2022-11-07T02:35:42.386Z,0
2022-11-07T02:36:48.694Z,0
2022-11-07T02:37:55.002Z,0
2022-11-07T02:39:01.448Z,0
2022-11-07T02:40:06.804Z,0
2022-11-07T02:41:13.032Z,0
2022-11-07T02:42:19.294Z,0
2022-11-07T02:43:25.504Z,0
2022-11-07T02:44:31.726Z,0
2022-11-07T02:45:37.956Z,0
2022-11-07T02:46:44.191Z,0
2022-11-07T02:47:50.418Z,0
2022-11-07T02:48:56.647Z,0
2022-11-07T02:50:02.880Z,0
2022-11-07T02:51:09.112Z,0
2022-11-07T02:52:15.340Z,0
2022-11-07T02:53:21.635Z,0
2022-11-07T02:54:27.911Z,0
2022-11-07T02:55:34.035Z,0
2022-11-07T02:56:40.286Z,0
2022-11-07T02:57:46.491Z,0
2022-11-07T02:58:52.736Z,0
2022-11-07T02:59:59.027Z,0
2022-11-07T03:01:05.223Z,0
2022-11-07T03:02:11.435Z,0
2022-11-07T03:03:17.672Z,0
2022-11-07T03:04:23.920Z,0
2022-11-07T03:05:30.164Z,0
2022-11-07T03:06:36.375Z,0
2022-11-07T03:07:42.681Z,0
2022-11-07T03:08:49.009Z,0
2022-11-07T03:09:55.318Z,0
2022-11-07T03:11:01.642Z,0
2022-11-07T03:12:07.946Z,0
2022-11-07T03:13:14.253Z,0
2022-11-07T03:14:20.588Z,0
2022-11-07T03:15:26.903Z,0
2022-11-07T03:16:33.294Z,0
2022-11-07T03:17:39.555Z,0
2022-11-07T03:18:45.846Z,0
2022-11-07T03:19:52.222Z,0
2022-11-07T03:20:58.525Z,0
2022-11-07T03:22:04.921Z,0
2022-11-07T03:23:10.310Z,0
2022-11-07T03:24:16.559Z,0
2022-11-07T03:25:22.785Z,0
2022-11-07T03:26:29.010Z,0
2022-11-07T03:27:35.242Z,0
2022-11-07T03:28:41.495Z,0
2022-11-07T03:29:47.733Z,0
2022-11-07T03:30:53.959Z,0
2022-11-07T03:32:00.191Z,0
2022-11-07T03:33:06.423Z,0
2022-11-07T03:34:12.677Z,0
2022-11-07T03:35:18.934Z,0
2022-11-07T03:36:25.151Z,0
2022-11-07T03:37:31.392Z,0
2022-11-07T03:38:37.625Z,0
2022-11-07T03:39:43.862Z,0
2022-11-07T03:40:50.090Z,0
2022-11-07T03:41:56.355Z,0
2022-11-07T03:43:02.593Z,0
2022-11-07T03:44:08.817Z,0
2022-11-07T03:45:15.063Z,0
2022-11-07T03:46:21.283Z,0
2022-11-07T03:47:27.517Z,0
2022-11-07T03:48:33.806Z,0
2022-11-07T03:49:40.009Z,0
2022-11-07T03:50:46.340Z,0
2022-11-07T03:51:52.700Z,0
2022-11-07T03:52:58.952Z,0
2022-11-07T03:54:05.275Z,0
2022-11-07T03:55:11.609Z,0
2022-11-07T03:56:17.901Z,0
2022-11-07T03:57:24.294Z,0
2022-11-07T03:58:30.529Z,0
2022-11-07T03:59:36.857Z,0
2022-11-07T04:00:43.232Z,0
2022-11-07T04:01:49.480Z,0
2022-11-07T04:02:55.795Z,0
2022-11-07T04:04:02.142Z,0
2022-11-07T04:05:08.555Z,0
2022-11-07T04:06:13.917Z,0
2022-11-07T04:07:20.151Z,0
2022-11-07T04:08:26.386Z,0
2022-11-07T04:09:32.613Z,0
2022-11-07T04:10:38.856Z,0
2022-11-07T04:11:45.092Z,0
2022-11-07T04:12:51.337Z,0
2022-11-07T04:13:57.568Z,0
2022-11-07T04:15:03.797Z,0
2022-11-07T04:16:10.048Z,0
2022-11-07T04:17:16.335Z,0
2022-11-07T04:18:22.525Z,0
2022-11-07T04:19:28.794Z,0
2022-11-07T04:20:34.995Z,0
2022-11-07T04:21:41.224Z,0
2022-11-07T04:22:47.471Z,0
2022-11-07T04:23:53.708Z,0
2022-11-07T04:24:59.952Z,0
2022-11-07T04:26:06.190Z,0
2022-11-07T04:27:12.411Z,0
2022-11-07T04:28:18.737Z,0
2022-11-07T04:29:24.881Z,0
2022-11-07T04:30:31.119Z,0
2022-11-07T04:31:37.341Z,0
2022-11-07T04:32:43.673Z,0
2022-11-07T04:33:49.886Z,0
2022-11-07T04:34:56.226Z,0
2022-11-07T04:36:02.510Z,0
2022-11-07T04:37:08.866Z,0
2022-11-07T04:38:15.147Z,0
2022-11-07T04:39:21.500Z,0
2022-11-07T04:40:27.742Z,0
2022-11-07T04:41:34.049Z,0
2022-11-07T04:42:40.349Z,0
2022-11-07T04:43:46.690Z,0
2022-11-07T04:44:52.978Z,0
2022-11-07T04:45:59.291Z,0
2022-11-07T04:47:04.577Z,0
2022-11-07T04:48:10.803Z,0
2022-11-07T04:49:17.044Z,0
2022-11-07T04:50:23.269Z,0
2022-11-07T04:51:29.552Z,0
2022-11-07T04:52:35.735Z,0
2022-11-07T04:53:41.979Z,0
2022-11-07T04:54:48.214Z,0
2022-11-07T04:55:54.460Z,0
2022-11-07T04:57:00.733Z,0
2022-11-07T04:58:06.916Z,0
2022-11-07T04:59:13.179Z,0
2022-11-07T05:00:19.398Z,0
2022-11-07T05:01:25.738Z,0
2022-11-07T05:02:31.859Z,0
2022-11-07T05:03:38.107Z,0
2022-11-07T05:04:44.335Z,0
2022-11-07T05:05:50.572Z,0
2022-11-07T05:06:56.828Z,0
2022-11-07T05:08:03.052Z,0
2022-11-07T05:09:09.294Z,0
2022-11-07T05:10:15.537Z,0
2022-11-07T05:11:21.857Z,0
2022-11-07T05:12:28.032Z,0
2022-11-07T05:13:34.312Z,0
2022-11-07T05:14:40.586Z,0
2022-11-07T05:15:46.944Z,0
2022-11-07T05:16:53.256Z,0
2022-11-07T05:17:59.525Z,0
2022-11-07T05:19:05.840Z,0
2022-11-07T05:20:12.152Z,0
2022-11-07T05:21:18.457Z,0
2022-11-07T05:22:24.788Z,0
2022-11-07T05:23:31.110Z,0
2022-11-07T05:24:37.413Z,0
2022-11-07T05:25:43.719Z,0
2022-11-07T05:26:50.088Z,0
2022-11-07T05:27:56.368Z,0
2022-11-07T05:29:02.868Z,0
2022-11-07T05:30:08.244Z,0
2022-11-07T05:31:14.468Z,0
2022-11-07T05:32:20.688Z,3
2022-11-07T05:33:26.911Z,3
2022-11-07T05:34:33.137Z,4
2022-11-07T05:35:39.367Z,0
2022-11-07T05:36:45.638Z,0
2022-11-07T05:37:51.864Z,0
2022-11-07T05:38:58.106Z,4
2022-11-07T05:40:04.359Z,4
2022-11-07T05:41:10.631Z,9
2022-11-07T05:42:16.851Z,1
2022-11-07T05:43:23.076Z,5
2022-11-07T05:44:29.323Z,5
2022-11-07T05:45:35.565Z,10
2022-11-07T05:46:41.816Z,6
2022-11-07T05:47:48.059Z,4
2022-11-07T05:48:54.355Z,6
2022-11-07T05:50:00.560Z,11
2022-11-07T05:51:06.792Z,9
2022-11-07T05:52:13.066Z,11
2022-11-07T05:53:19.332Z,17
2022-11-07T05:54:25.541Z,21
2022-11-07T05:55:31.812Z,27
2022-11-07T05:56:38.049Z,30
2022-11-07T05:57:44.378Z,46
2022-11-07T05:58:50.721Z,77
2022-11-07T05:59:57.042Z,74
2022-11-07T06:01:03.350Z,84
2022-11-07T06:02:09.683Z,116
2022-11-07T06:03:16.025Z,148
2022-11-07T06:04:22.393Z,155
2022-11-07T06:05:28.797Z,158
2022-11-07T06:06:35.023Z,150
2022-11-07T06:07:41.386Z,159
2022-11-07T06:08:47.654Z,158
2022-11-07T06:09:54.001Z,182
2022-11-07T06:11:00.305Z,252
2022-11-07T06:12:06.764Z,323
2022-11-07T06:13:12.153Z,395
2022-11-07T06:14:18.452Z,414
2022-11-07T06:15:24.737Z,458
2022-11-07T06:16:31.036Z,503
2022-11-07T06:17:37.168Z,510
2022-11-07T06:18:43.425Z,550
2022-11-07T06:19:49.684Z,581
2022-11-07T06:20:55.925Z,600
2022-11-07T06:22:02.173Z,653
2022-11-07T06:23:08.426Z,801
2022-11-07T06:24:14.669Z,901
2022-11-07T06:25:20.929Z,935
2022-11-07T06:26:27.221Z,958
2022-11-07T06:27:33.429Z,1039
2022-11-07T06:28:39.692Z,1125
2022-11-07T06:29:45.927Z,945
2022-11-07T06:30:52.182Z,1569
2022-11-07T06:31:58.408Z,2580
2022-11-07T06:33:04.653Z,3535
2022-11-07T06:34:10.887Z,3812
2022-11-07T06:35:17.138Z,3736
2022-11-07T06:36:23.444Z,4994
2022-11-07T06:37:29.623Z,3522
2022-11-07T06:38:35.873Z,4446
2022-11-07T06:39:42.146Z,4045
2022-11-07T06:40:48.426Z,3993
2022-11-07T06:41:54.746Z,5583
2022-11-07T06:43:01.061Z,7334
2022-11-07T06:44:07.387Z,4529
2022-11-07T06:45:13.761Z,4298
2022-11-07T06:46:20.002Z,5152
2022-11-07T06:47:26.298Z,16387
2022-11-07T06:48:31.595Z,19834
2022-11-07T06:49:37.842Z,9957
2022-11-07T06:50:44.049Z,3902
2022-11-07T06:51:50.271Z,8570
2022-11-07T06:52:56.500Z,11110
2022-11-07T06:54:02.720Z,25022
2022-11-07T06:55:08.951Z,25771
2022-11-07T06:56:15.166Z,5262
2022-11-07T06:57:21.404Z,6509
2022-11-07T06:58:27.573Z,8682
2022-11-07T06:59:33.823Z,17946
2022-11-07T07:00:40.037Z,12019
2022-11-07T07:01:46.199Z,11129
2022-11-07T07:02:52.376Z,27844
2022-11-07T07:03:57.744Z,7405
2022-11-07T07:05:03.782Z,7093
2022-11-07T07:06:09.056Z,12529
2022-11-07T07:07:14.200Z,10174
2022-11-07T07:08:19.478Z,11389
2022-11-07T07:09:25.587Z,29066
2022-11-07T07:10:31.777Z,31135
2022-11-07T07:11:37.954Z,40679
2022-11-07T07:12:44.138Z,8098
2022-11-07T07:13:50.342Z,10605
2022-11-07T07:14:56.491Z,30448
2022-11-07T07:16:02.684Z,28136
2022-11-07T07:17:08.966Z,15240
2022-11-07T07:18:15.101Z,30415
2022-11-07T07:19:21.182Z,54594
2022-11-07T07:20:27.420Z,26482
2022-11-07T07:21:33.496Z,16351
2022-11-07T07:22:38.677Z,52304
2022-11-07T07:23:44.813Z,21810
2022-11-07T07:24:50.940Z,27746
2022-11-07T07:25:57.116Z,13358
2022-11-07T07:27:03.224Z,21418
2022-11-07T07:28:09.354Z,25179
2022-11-07T07:29:15.490Z,18558
2022-11-07T07:30:21.674Z,17308
2022-11-07T07:31:27.738Z,54137
2022-11-07T07:32:33.870Z,43506
2022-11-07T07:33:40.075Z,32961
2022-11-07T07:34:46.107Z,48745
2022-11-07T07:35:52.260Z,37241
2022-11-07T07:36:58.396Z,29591
2022-11-07T07:38:04.470Z,20904
2022-11-07T07:39:10.696Z,10501
2022-11-07T07:40:16.773Z,9498
2022-11-07T07:41:22.852Z,9263
2022-11-07T07:42:29.057Z,9081
2022-11-07T07:43:34.140Z,9433
2022-11-07T07:44:40.271Z,9189
2022-11-07T07:45:46.467Z,8690
2022-11-07T07:46:52.623Z,8286
2022-11-07T07:47:58.712Z,9242
2022-11-07T07:49:04.852Z,9124
2022-11-07T07:50:11.063Z,9591
2022-11-07T07:51:17.189Z,9956
2022-11-07T07:52:23.308Z,10743
2022-11-07T07:53:29.465Z,11141
2022-11-07T07:54:35.625Z,11348
2022-11-07T07:55:41.785Z,11193
2022-11-07T07:56:47.942Z,10193
2022-11-07T07:57:53.123Z,10369
2022-11-07T07:58:59.320Z,9549
2022-11-07T08:00:05.486Z,9220
2022-11-07T08:01:11.717Z,9122
2022-11-07T08:02:17.837Z,8559
2022-11-07T08:03:24.042Z,8954
2022-11-07T08:04:30.309Z,8734
2022-11-07T08:05:36.284Z,8727
2022-11-07T08:06:42.470Z,8932
2022-11-07T08:07:48.664Z,8013
2022-11-07T08:08:54.806Z,9569
2022-11-07T08:10:00.963Z,8710
2022-11-07T08:11:07.136Z,8511
2022-11-07T08:12:12.330Z,8434
2022-11-07T08:13:18.605Z,8431
2022-11-07T08:14:24.752Z,8813
2022-11-07T08:15:30.956Z,8795
2022-11-07T08:16:37.144Z,9141
2022-11-07T08:17:43.263Z,8868
2022-11-07T08:18:49.398Z,8897
2022-11-07T08:19:55.575Z,9232
2022-11-07T08:21:01.868Z,9699
2022-11-07T08:22:07.924Z,7958
2022-11-07T08:23:14.099Z,11904
2022-11-07T08:24:20.331Z,9589
2022-11-07T08:25:26.457Z,9950
2022-11-07T08:26:31.713Z,12477
2022-11-07T08:27:37.809Z,10228
2022-11-07T08:28:43.997Z,11370
2022-11-07T08:29:50.188Z,11635
2022-11-07T08:30:56.363Z,10640
2022-11-07T08:32:02.512Z,10468
2022-11-07T08:33:08.754Z,12429
2022-11-07T08:34:14.870Z,12392
2022-11-07T08:35:21.038Z,15347
2022-11-07T08:36:27.209Z,15277
2022-11-07T08:37:33.478Z,14456
2022-11-07T08:38:39.562Z,15078
2022-11-07T08:39:45.718Z,14898
2022-11-07T08:40:50.898Z,12850
2022-11-07T08:41:57.059Z,12759
2022-11-07T08:43:03.236Z,13723
2022-11-07T08:44:09.432Z,13197
2022-11-07T08:45:15.570Z,13080
2022-11-07T08:46:21.730Z,10914
2022-11-07T08:47:27.897Z,10037
2022-11-07T08:48:34.058Z,9039
2022-11-07T08:49:40.281Z,7336
2022-11-07T08:50:46.396Z,10451
2022-11-07T08:51:52.564Z,3513
2022-11-07T08:52:58.775Z,10544
2022-11-07T08:54:04.902Z,39622
2022-11-07T08:55:10.075Z,35056
2022-11-07T08:56:16.314Z,11976
2022-11-07T08:57:22.386Z,48566
2022-11-07T08:58:28.555Z,15240
2022-11-07T08:59:34.692Z,10477
2022-11-07T09:00:40.852Z,10455
2022-11-07T09:01:47.064Z,10300
2022-11-07T09:02:53.146Z,8996
2022-11-07T09:03:59.416Z,8423
2022-11-07T09:05:05.505Z,8443
2022-11-07T09:06:11.695Z,9583
2022-11-07T09:07:17.780Z,8455
2022-11-07T09:08:23.878Z,8538
2022-11-07T09:09:29.027Z,9967
2022-11-07T09:10:35.162Z,7902
2022-11-07T09:11:41.296Z,7809
2022-11-07T09:12:47.536Z,7669
2022-11-07T09:13:53.577Z,9823
2022-11-07T09:14:59.722Z,8594
2022-11-07T09:16:05.881Z,8661
2022-11-07T09:17:12.004Z,9064
2022-11-07T09:18:18.144Z,9238
2022-11-07T09:19:24.296Z,7518
2022-11-07T09:20:30.423Z,9985
2022-11-07T09:21:36.577Z,9411
2022-11-07T09:22:42.719Z,9488
2022-11-07T09:23:47.893Z,9846
2022-11-07T09:24:54.026Z,9975
2022-11-07T09:26:00.212Z,8690
2022-11-07T09:27:06.316Z,7488
2022-11-07T09:28:12.460Z,10607
2022-11-07T09:29:18.758Z,9059
2022-11-07T09:30:24.854Z,8361
2022-11-07T09:31:31.013Z,8738
2022-11-07T09:32:37.060Z,8917
2022-11-07T09:33:43.201Z,10473
2022-11-07T09:34:49.351Z,10104
2022-11-07T09:35:55.504Z,9804
2022-11-07T09:37:01.736Z,9411
2022-11-07T09:38:06.820Z,10569
2022-11-07T09:39:12.964Z,10625
2022-11-07T09:40:19.112Z,9753
2022-11-07T09:41:25.464Z,9235
2022-11-07T09:42:31.524Z,10008
2022-11-07T09:43:37.691Z,9878
2022-11-07T09:44:43.747Z,11899
2022-11-07T09:45:49.858Z,11024
2022-11-07T09:46:56.101Z,10580
2022-11-07T09:48:02.173Z,10011
2022-11-07T09:49:08.296Z,10548
2022-11-07T09:50:14.477Z,10380
2022-11-07T09:51:20.652Z,11130
2022-11-07T09:52:25.824Z,8433
2022-11-07T09:53:31.889Z,10079
2022-11-07T09:54:37.058Z,10563
2022-11-07T09:55:43.269Z,10217
2022-11-07T09:56:49.348Z,10147
2022-11-07T09:57:55.502Z,11081
2022-11-07T09:59:01.665Z,11167
2022-11-07T10:00:07.786Z,10460
2022-11-07T10:01:13.996Z,8941
2022-11-07T10:02:20.074Z,10798
2022-11-07T10:03:26.275Z,9909
2022-11-07T10:04:32.488Z,9965
2022-11-07T10:05:38.519Z,9641
2022-11-07T10:06:44.649Z,9766
2022-11-07T10:07:50.811Z,8772
2022-11-07T10:08:55.984Z,7869
2022-11-07T10:10:02.096Z,7128
2022-11-07T10:11:08.335Z,9697
2022-11-07T10:12:14.415Z,9300
2022-11-07T10:13:20.636Z,8547
2022-11-07T10:14:26.767Z,5470
2022-11-07T10:15:32.817Z,7944
2022-11-07T10:16:38.960Z,9302
2022-11-07T10:17:45.194Z,8113
2022-11-07T10:18:51.282Z,8970
2022-11-07T10:19:57.485Z,11142
2022-11-07T10:21:03.581Z,8553
2022-11-07T10:22:09.662Z,11214
2022-11-07T10:23:14.898Z,9231
2022-11-07T10:24:20.967Z,9241
2022-11-07T10:25:27.099Z,9320
2022-11-07T10:26:33.243Z,9298
2022-11-07T10:27:39.500Z,8973
2022-11-07T10:28:45.528Z,8831
2022-11-07T10:29:51.729Z,8674
2022-11-07T10:30:57.810Z,9007
2022-11-07T10:32:04.045Z,8754
2022-11-07T10:33:10.101Z,7950
2022-11-07T10:34:16.249Z,9767
2022-11-07T10:35:22.368Z,10918
2022-11-07T10:36:28.551Z,11501
2022-11-07T10:37:33.760Z,9251
2022-11-07T10:38:39.810Z,8053
2022-11-07T10:39:46.024Z,9261
2022-11-07T10:40:52.087Z,8117
2022-11-07T10:41:58.256Z,8261
2022-11-07T10:43:04.377Z,8618
2022-11-07T10:44:10.534Z,8580
2022-11-07T10:45:16.634Z,8610
2022-11-07T10:46:22.776Z,7398
2022-11-07T10:47:29.065Z,8889
2022-11-07T10:48:35.061Z,11003
2022-11-07T10:49:41.216Z,8044
2022-11-07T10:50:47.313Z,9892
2022-11-07T10:51:53.441Z,9132
2022-11-07T10:52:58.612Z,8603
2022-11-07T10:54:04.740Z,8357
2022-11-07T10:55:10.902Z,8981
2022-11-07T10:56:16.985Z,8932
2022-11-07T10:57:23.125Z,8853
2022-11-07T10:58:29.365Z,8963
2022-11-07T10:59:35.386Z,8910
2022-11-07T11:00:41.527Z,8829
2022-11-07T11:01:47.750Z,8847
2022-11-07T11:02:53.782Z,8588
2022-11-07T11:03:59.917Z,8372
2022-11-07T11:05:06.086Z,8389
2022-11-07T11:06:12.276Z,8355
2022-11-07T11:07:17.459Z,8311
2022-11-07T11:08:23.597Z,8235
2022-11-07T11:09:29.656Z,8193
2022-11-07T11:10:35.786Z,8295
2022-11-07T11:11:41.977Z,8029
2022-11-07T11:12:48.065Z,7896
2022-11-07T11:13:54.238Z,7082
2022-11-07T11:15:00.310Z,10240
2022-11-07T11:16:06.442Z,9067
2022-11-07T11:17:12.583Z,9266
2022-11-07T11:18:18.730Z,9431
2022-11-07T11:19:24.875Z,9666
2022-11-07T11:20:30.997Z,9020
2022-11-07T11:21:36.210Z,11853
2022-11-07T11:22:42.365Z,10791
2022-11-07T11:23:48.411Z,9846
2022-11-07T11:24:54.538Z,10141
2022-11-07T11:26:00.749Z,10829
2022-11-07T11:27:06.848Z,10430
2022-11-07T11:28:12.943Z,10320
2022-11-07T11:29:19.071Z,10455
2022-11-07T11:30:25.200Z,10348
2022-11-07T11:31:31.408Z,10247
2022-11-07T11:32:37.542Z,10202
2022-11-07T11:33:43.592Z,9807
2022-11-07T11:34:49.717Z,9613
2022-11-07T11:35:54.866Z,9404
2022-11-07T11:37:00.986Z,9027
2022-11-07T11:38:07.175Z,9079
2022-11-07T11:39:13.240Z,9051
2022-11-07T11:40:19.398Z,8770
2022-11-07T11:41:25.501Z,8446
2022-11-07T11:42:31.672Z,7831
2022-11-07T11:43:37.753Z,6979
2022-11-07T11:44:43.886Z,6182
2022-11-07T11:45:50.079Z,5846
2022-11-07T11:46:56.145Z,5464
2022-11-07T11:48:02.332Z,4947
2022-11-07T11:49:08.449Z,4523
2022-11-07T11:50:14.563Z,4417
2022-11-07T11:51:20.650Z,4261
2022-11-07T11:52:25.845Z,3873
2022-11-07T11:53:31.956Z,3527
2022-11-07T11:54:38.083Z,3269
2022-11-07T11:55:44.264Z,3481
2022-11-07T11:56:50.349Z,3776
2022-11-07T11:57:56.492Z,3784
2022-11-07T11:59:02.626Z,3639
2022-11-07T12:00:08.756Z,3403
2022-11-07T12:01:14.913Z,3250
2022-11-07T12:02:21.033Z,3171
2022-11-07T12:03:27.261Z,3004
2022-11-07T12:04:33.320Z,2932
2022-11-07T12:05:39.523Z,2917
2022-11-07T12:06:44.621Z,2956
2022-11-07T12:07:50.769Z,3048
2022-11-07T12:08:56.922Z,3277
2022-11-07T12:10:03.090Z,3452
2022-11-07T12:11:09.200Z,3656
2022-11-07T12:12:15.341Z,3983
2022-11-07T12:13:21.584Z,4142
2022-11-07T12:14:27.633Z,4156
2022-11-07T12:15:33.783Z,4146
2022-11-07T12:16:39.921Z,4103
2022-11-07T12:17:46.051Z,4229
2022-11-07T12:18:52.187Z,4496
2022-11-07T12:19:58.351Z,4614
2022-11-07T12:21:03.565Z,4466
2022-11-07T12:22:09.628Z,4601
2022-11-07T12:23:15.780Z,4753
2022-11-07T12:24:21.915Z,4877
2022-11-07T12:25:28.133Z,5080
2022-11-07T12:26:34.204Z,5262
2022-11-07T12:27:40.349Z,5337
2022-11-07T12:28:46.485Z,5397
2022-11-07T12:29:52.635Z,5285
2022-11-07T12:30:58.772Z,5703
2022-11-07T12:32:04.921Z,6169
2022-11-07T12:33:11.056Z,6140
2022-11-07T12:34:17.207Z,6217
2022-11-07T12:35:22.370Z,5973
2022-11-07T12:36:28.561Z,5929
2022-11-07T12:37:34.660Z,6344
2022-11-07T12:38:40.803Z,6861
2022-11-07T12:39:46.999Z,7118
2022-11-07T12:40:53.088Z,6857
2022-11-07T12:41:59.273Z,6969
2022-11-07T12:43:05.419Z,7487
2022-11-07T12:44:11.528Z,7399
2022-11-07T12:45:17.674Z,6962
2022-11-07T12:46:23.819Z,6877
2022-11-07T12:47:29.956Z,6896
2022-11-07T12:48:36.093Z,7103
2022-11-07T12:49:41.254Z,7170
2022-11-07T12:50:47.394Z,6908
2022-11-07T12:51:53.534Z,6704
2022-11-07T12:52:59.698Z,6571
2022-11-07T12:54:05.827Z,6801
2022-11-07T12:55:11.944Z,6729
2022-11-07T12:56:18.086Z,6963
2022-11-07T12:57:24.221Z,6840
2022-11-07T12:58:30.396Z,7303
2022-11-07T12:59:36.506Z,7894
2022-11-07T13:00:42.652Z,7605
2022-11-07T13:01:48.884Z,7507
2022-11-07T13:02:54.917Z,7397
2022-11-07T13:04:00.095Z,6350
2022-11-07T13:05:06.206Z,6351
2022-11-07T13:06:12.332Z,5989
2022-11-07T13:07:18.521Z,5739
2022-11-07T13:08:24.623Z,5402
2022-11-07T13:09:30.759Z,5359
2022-11-07T13:10:36.918Z,6466
2022-11-07T13:11:43.038Z,5364
2022-11-07T13:12:49.170Z,6538
2022-11-07T13:13:55.319Z,6458
2022-11-07T13:15:01.448Z,6452
2022-11-07T13:16:07.581Z,8299
2022-11-07T13:17:13.771Z,7074
2022-11-07T13:18:18.883Z,7041
2022-11-07T13:19:25.024Z,6723
2022-11-07T13:20:31.173Z,6448
2022-11-07T13:21:37.306Z,6806
2022-11-07T13:22:43.462Z,7055
2022-11-07T13:23:49.591Z,7239
2022-11-07T13:24:55.785Z,7315
2022-11-07T13:26:01.874Z,7243
2022-11-07T13:27:07.996Z,7065
2022-11-07T13:28:14.153Z,6843
2022-11-07T13:29:20.311Z,6658
2022-11-07T13:30:26.397Z,6369
2022-11-07T13:31:32.541Z,7037
2022-11-07T13:32:37.702Z,6907
2022-11-07T13:33:43.835Z,6333
2022-11-07T13:34:50.113Z,6287
2022-11-07T13:35:55.156Z,5106
2022-11-07T13:37:01.296Z,3943
2022-11-07T13:38:07.416Z,3904
2022-11-07T13:39:13.573Z,3848
2022-11-07T13:40:19.711Z,3507
2022-11-07T13:41:25.936Z,4482
2022-11-07T13:42:32.096Z,5182
2022-11-07T13:43:38.121Z,4117
2022-11-07T13:44:44.269Z,5827
2022-11-07T13:45:50.405Z,4201
2022-11-07T13:46:56.554Z,4448
2022-11-07T13:48:02.700Z,4342
2022-11-07T13:49:08.861Z,4552
2022-11-07T13:50:13.992Z,4717
2022-11-07T13:51:20.136Z,4563
2022-11-07T13:52:26.272Z,4145
2022-11-07T13:53:32.425Z,3895
2022-11-07T13:54:38.564Z,3569
2022-11-07T13:55:44.707Z,3410
2022-11-07T13:56:50.917Z,3342
2022-11-07T13:57:57.002Z,3320
2022-11-07T13:59:03.191Z,3495
2022-11-07T14:00:09.282Z,3693
2022-11-07T14:01:15.449Z,3530
2022-11-07T14:02:21.566Z,3283
2022-11-07T14:03:27.716Z,2929
2022-11-07T14:04:32.877Z,3098
2022-11-07T14:05:39.037Z,2882
2022-11-07T14:06:45.175Z,2876
2022-11-07T14:07:51.329Z,3252
2022-11-07T14:08:57.479Z,3517
2022-11-07T14:10:03.615Z,3350
2022-11-07T14:11:09.753Z,3242
2022-11-07T14:12:15.921Z,3199
2022-11-07T14:13:22.061Z,3044
2022-11-07T14:14:28.216Z,2969
2022-11-07T14:15:34.363Z,2942
2022-11-07T14:16:40.524Z,2971
2022-11-07T14:17:46.673Z,3040
2022-11-07T14:18:51.829Z,3034
2022-11-07T14:19:57.978Z,2970
2022-11-07T14:21:04.130Z,2917
2022-11-07T14:22:10.269Z,2811
2022-11-07T14:23:16.425Z,2749
2022-11-07T14:24:22.635Z,2733
2022-11-07T14:25:28.725Z,2701
2022-11-07T14:26:34.981Z,2708
2022-11-07T14:27:41.044Z,2706
2022-11-07T14:28:47.310Z,2757
2022-11-07T14:29:53.358Z,2675
2022-11-07T14:30:59.512Z,2573
2022-11-07T14:32:05.689Z,2483
2022-11-07T14:33:10.842Z,2413
2022-11-07T14:34:17.133Z,2367
2022-11-07T14:35:23.167Z,2287
2022-11-07T14:36:29.373Z,2212
2022-11-07T14:37:35.471Z,2152
2022-11-07T14:38:41.626Z,2113
2022-11-07T14:39:47.820Z,2085
2022-11-07T14:40:53.933Z,2074
2022-11-07T14:42:00.113Z,2020
2022-11-07T14:43:06.297Z,1931
2022-11-07T14:44:12.433Z,1775
2022-11-07T14:45:18.563Z,1660
2022-11-07T14:46:24.706Z,1498
2022-11-07T14:47:29.875Z,1356
2022-11-07T14:48:36.104Z,1191
2022-11-07T14:49:42.255Z,1045
2022-11-07T14:50:48.359Z,934
2022-11-07T14:51:54.500Z,865
2022-11-07T14:53:00.686Z,796
2022-11-07T14:54:06.878Z,730
2022-11-07T14:55:12.972Z,642
2022-11-07T14:56:19.196Z,615
2022-11-07T14:57:25.324Z,585
2022-11-07T14:58:31.422Z,559
2022-11-07T14:59:37.588Z,559
2022-11-07T15:00:43.758Z,533
2022-11-07T15:01:48.944Z,509
2022-11-07T15:02:55.108Z,473
2022-11-07T15:04:01.247Z,430
2022-11-07T15:05:07.456Z,410
2022-11-07T15:06:13.642Z,459
2022-11-07T15:07:19.729Z,441
2022-11-07T15:08:25.874Z,422
2022-11-07T15:09:32.109Z,388
2022-11-07T15:10:38.211Z,366
2022-11-07T15:11:44.358Z,354
2022-11-07T15:12:50.505Z,359